Time;durP1;ratioP1;P1;durP2;ratioP2;P2;SDS_P1;SDS_P2;PMS_P1;PMS_P2;Temp;Humidity;BMP_temperature;BMP_pressure;BME280_temperature;BME280_humidity;BME280_pressure;Samples;Min_cycle;Max_cycle;Signal;HPM_P1;HPM_P2
2022/06/19 00:00:52;;;;;;;2.65;2.00;;;23.20;64.40;;;;;;5092243;28;20460;-68
2022/06/19 00:03:34;;;;;;;2.83;2.10;;;23.20;65.30;;;;;;5091982;28;20115;-68
2022/06/19 00:06:00;;;;;;;2.00;1.80;;;23.20;65.80;;;;;;5092366;28;20064;-68
2022/06/19 00:08:28;;;;;;;2.13;1.88;;;23.10;66.30;;;;;;5091929;28;20035;-68
2022/06/19 00:10:54;;;;;;;2.90;2.50;;;23.10;66.90;;;;;;5092529;28;20028;-67
2022/06/19 00:13:19;;;;;;;3.65;2.50;;;23.10;67.30;;;;;;5091868;28;20384;-67
2022/06/19 00:15:45;;;;;;;4.53;2.35;;;23.00;67.70;;;;;;5091969;28;20063;-67
2022/06/19 00:18:11;;;;;;;2.58;2.10;;;23.00;68.20;;;;;;5092269;28;20191;-67
2022/06/19 00:20:36;;;;;;;3.50;2.25;;;23.00;68.60;;;;;;5091639;28;20032;-68
2022/06/19 00:23:02;;;;;;;2.50;2.30;;;23.00;68.80;;;;;;5092035;28;20125;-67
2022/06/19 00:25:28;;;;;;;3.05;2.38;;;22.90;69.00;;;;;;5091948;28;20072;-67
2022/06/19 00:27:54;;;;;;;3.67;2.20;;;22.90;69.20;;;;;;5092053;28;20024;-67
2022/06/19 00:30:20;;;;;;;2.28;2.08;;;22.90;69.30;;;;;;5091454;28;20483;-68
2022/06/19 00:32:46;;;;;;;3.53;2.17;;;22.90;69.40;;;;;;5091925;28;20028;-67
2022/06/19 00:35:12;;;;;;;1.95;1.85;;;22.80;69.60;;;;;;5091555;28;20103;-67
2022/06/19 00:37:38;;;;;;;2.53;2.17;;;22.80;69.90;;;;;;5091532;28;20032;-67
2022/06/19 00:40:07;;;;;;;2.45;2.25;;;22.80;69.80;;;;;;5091765;28;20024;-67
2022/06/19 00:42:33;;;;;;;3.67;2.50;;;22.80;70.20;;;;;;5091317;28;20036;-67
2022/06/19 00:45:00;;;;;;;3.80;2.17;;;22.80;70.20;;;;;;5091732;28;20471;-67
2022/06/19 00:47:29;;;;;;;2.92;2.20;;;22.70;70.50;;;;;;5091569;28;20028;-68
2022/06/19 00:50:05;;;;;;;3.38;2.30;;;22.70;70.80;;;;;;5091458;28;20111;-68
2022/06/19 00:52:38;;;;;;;2.25;2.03;;;22.70;71.10;;;;;;5091410;28;20070;-68
2022/06/19 00:55:20;;;;;;;2.65;2.20;;;22.70;71.50;;;;;;5091646;28;20024;-67
2022/06/19 00:57:53;;;;;;;2.92;2.17;;;22.60;71.90;;;;;;5091735;28;20032;-68
2022/06/19 01:00:26;;;;;;;3.45;2.47;;;22.60;72.00;;;;;;5091261;28;20358;-68
2022/06/19 01:02:59;;;;;;;2.70;2.30;;;22.60;72.70;;;;;;5091491;28;20544;-67
2022/06/19 01:05:27;;;;;;;3.38;2.40;;;22.50;73.10;;;;;;5091113;28;20362;-68
2022/06/19 01:07:56;;;;;;;2.58;2.20;;;22.50;73.50;;;;;;5091215;28;20392;-67
2022/06/19 01:10:21;;;;;;;2.92;2.40;;;22.40;73.90;;;;;;5091491;28;20020;-68
2022/06/19 01:12:47;;;;;;;3.78;2.45;;;22.40;74.20;;;;;;5091591;28;20034;-67
2022/06/19 01:15:17;;;;;;;2.58;2.13;;;22.40;74.40;;;;;;5091424;28;20029;-67
2022/06/19 01:17:46;;;;;;;3.20;2.13;;;22.30;74.60;;;;;;5091237;28;20119;-68
2022/06/19 01:20:14;;;;;;;3.30;2.30;;;22.30;74.70;;;;;;5091520;28;20051;-67
2022/06/19 01:23:01;;;;;;;5.75;2.42;;;22.30;74.90;;;;;;5091020;28;20085;-69
2022/06/19 01:25:32;;;;;;;3.72;2.88;;;22.20;75.00;;;;;;5091152;28;20081;-68
2022/06/19 01:30:50;;;;;;;2.97;2.35;;;22.30;74.80;;;;;;5091484;28;20093;-67
2022/06/19 01:33:38;;;;;;;2.67;2.45;;;22.30;74.60;;;;;;5091432;28;20054;-67
2022/06/19 01:36:07;;;;;;;4.88;3.03;;;22.30;74.90;;;;;;5090288;28;20144;-67
2022/06/19 01:38:34;;;;;;;2.78;2.30;;;22.20;75.10;;;;;;5091023;28;20050;-67
2022/06/19 01:41:12;;;;;;;3.08;2.80;;;22.20;75.20;;;;;;5091533;28;20077;-67
2022/06/19 01:43:38;;;;;;;3.45;2.72;;;22.20;75.20;;;;;;5090948;28;20032;-68
2022/06/19 01:46:05;;;;;;;2.90;2.60;;;22.10;75.70;;;;;;5090913;28;20092;-67
2022/06/19 01:48:33;;;;;;;3.53;2.40;;;22.10;76.10;;;;;;5090876;28;20031;-68
2022/06/19 01:51:05;;;;;;;3.75;2.60;;;22.10;76.00;;;;;;5091136;28;20048;-67
2022/06/19 01:53:34;;;;;;;3.25;2.65;;;22.10;76.10;;;;;;5090686;28;20035;-67
2022/06/19 01:56:02;;;;;;;3.92;2.88;;;22.10;76.20;;;;;;5079821;28;20029;-67
2022/06/19 01:58:31;;;;;;;2.90;2.47;;;22.10;75.90;;;;;;5070415;28;20029;-68
2022/06/19 02:00:57;;;;;;;4.13;2.70;;;22.10;76.40;;;;;;5071918;28;20115;-67
2022/06/19 02:03:47;;;;;;;2.78;2.38;;;22.10;76.00;;;;;;5074777;28;20483;-68
2022/06/19 02:06:16;;;;;;;2.57;2.33;;;22.10;75.60;;;;;;5074516;28;20431;-68
2022/06/19 02:08:44;;;;;;;2.47;2.28;;;22.10;75.30;;;;;;5073972;28;20366;-67
2022/06/19 02:11:11;;;;;;;3.13;2.50;;;22.10;75.00;;;;;;5074114;28;20025;-68
2022/06/19 02:13:39;;;;;;;2.72;2.25;;;22.00;74.90;;;;;;5073865;28;20029;-67
2022/06/19 02:16:08;;;;;;;2.70;2.15;;;22.00;74.80;;;;;;5074340;28;20024;-67
2022/06/19 02:18:38;;;;;;;2.97;2.22;;;22.00;75.20;;;;;;5073851;28;20454;-67
2022/06/19 02:21:11;;;;;;;2.78;2.40;;;22.00;75.40;;;;;;5073808;28;20040;-68
2022/06/19 02:23:38;;;;;;;3.25;2.63;;;22.00;75.50;;;;;;5073748;28;20024;-68
2022/06/19 02:26:06;;;;;;;2.53;2.33;;;21.90;75.80;;;;;;5073957;28;20031;-67
2022/06/19 02:28:36;;;;;;;3.13;2.67;;;21.90;76.00;;;;;;5073328;28;20017;-67
2022/06/19 02:31:06;;;;;;;2.53;2.33;;;21.90;76.00;;;;;;5073973;28;20045;-67
2022/06/19 02:33:44;;;;;;;4.68;2.40;;;21.90;75.70;;;;;;5073472;28;20111;-67
2022/06/19 02:36:40;;;;;;;3.65;2.50;;;21.90;76.20;;;;;;5073980;28;20074;-67
2022/06/19 02:39:26;;;;;;;2.80;2.47;;;21.90;76.10;;;;;;5073850;28;20472;-68
2022/06/19 02:42:02;;;;;;;3.92;2.70;;;21.80;75.80;;;;;;5074019;28;20075;-68
2022/06/19 02:44:40;;;;;;;3.13;2.65;;;21.80;76.80;;;;;;5055581;28;20419;-67
2022/06/19 02:47:07;;;;;;;3.58;2.70;;;21.80;76.70;;;;;;5073540;28;20036;-68
2022/06/19 02:49:33;;;;;;;4.38;2.65;;;21.80;76.90;;;;;;5073400;28;20081;-67
2022/06/19 02:52:00;;;;;;;3.67;2.88;;;21.70;77.10;;;;;;5073492;28;20036;-68
2022/06/19 02:54:26;;;;;;;3.38;2.50;;;21.70;77.30;;;;;;5073391;28;20381;-67
2022/06/19 02:56:52;;;;;;;3.50;2.70;;;21.60;77.40;;;;;;5073850;28;20025;-67
2022/06/19 02:59:18;;;;;;;2.50;2.30;;;21.60;77.40;;;;;;5073617;28;20036;-67
2022/06/19 03:01:43;;;;;;;4.82;2.50;;;21.50;77.80;;;;;;5073069;28;20028;-67
2022/06/19 03:04:20;;;;;;;2.42;2.20;;;21.50;78.10;;;;;;5073370;28;20356;-68
2022/06/19 03:06:46;;;;;;;3.50;2.30;;;21.40;78.20;;;;;;5072772;28;20029;-67
2022/06/19 03:09:12;;;;;;;4.93;2.40;;;21.40;78.30;;;;;;5073357;28;20493;-68
2022/06/19 03:11:37;;;;;;;3.90;2.15;;;21.30;78.70;;;;;;5072577;28;20036;-68
2022/06/19 03:14:03;;;;;;;3.55;2.38;;;21.30;78.90;;;;;;5072900;28;20108;-67
2022/06/19 03:16:29;;;;;;;3.08;2.38;;;21.30;79.30;;;;;;5072823;28;20033;-66
2022/06/19 03:18:54;;;;;;;2.67;2.40;;;21.20;78.90;;;;;;5073463;28;20051;-67
2022/06/19 03:21:20;;;;;;;2.97;2.30;;;21.20;79.10;;;;;;5073102;28;20371;-68
2022/06/19 03:23:45;;;;;;;3.85;2.92;;;21.10;79.50;;;;;;5075241;28;20039;-68
2022/06/19 03:26:11;;;;;;;3.30;2.10;;;21.10;79.50;;;;;;5092637;28;20096;-67
2022/06/19 03:28:37;;;;;;;3.00;2.70;;;21.10;79.70;;;;;;5092317;28;20030;-68
2022/06/19 03:31:02;;;;;;;3.10;2.30;;;21.10;79.10;;;;;;5092884;28;20087;-68
2022/06/19 03:33:28;;;;;;;2.30;2.10;;;21.10;79.30;;;;;;5092489;28;20156;-67
2022/06/19 03:35:54;;;;;;;2.97;2.08;;;21.10;79.30;;;;;;5092414;28;20368;-68
2022/06/19 03:38:20;;;;;;;2.47;2.28;;;21.00;79.00;;;;;;5092478;28;20096;-67
2022/06/19 03:40:45;;;;;;;1.95;1.80;;;21.10;78.60;;;;;;5086599;28;20024;-68
2022/06/19 03:43:11;;;;;;;1.50;1.40;;;21.00;79.20;;;;;;5091772;28;20028;-68
2022/06/19 03:45:37;;;;;;;2.42;1.80;;;21.00;78.80;;;;;;5075441;28;20131;-68
2022/06/19 03:48:03;;;;;;;1.60;1.50;;;21.10;79.20;;;;;;5072329;28;20103;-67
2022/06/19 03:50:29;;;;;;;1.88;1.70;;;21.10;79.20;;;;;;5072015;28;20460;-68
2022/06/19 03:52:54;;;;;;;2.10;1.90;;;21.10;78.90;;;;;;5071788;28;20047;-68
2022/06/19 03:55:20;;;;;;;2.97;1.70;;;21.10;79.50;;;;;;5071956;28;20147;-68
2022/06/19 03:57:46;;;;;;;1.98;1.33;;;21.10;79.60;;;;;;5079227;28;20169;-67
2022/06/19 04:00:17;;;;;;;2.03;1.85;;;21.10;80.00;;;;;;5091906;28;20028;-68
2022/06/19 04:02:44;;;;;;;1.80;1.42;;;21.10;80.50;;;;;;5075773;28;20020;-67
2022/06/19 04:05:10;;;;;;;1.63;1.27;;;21.10;80.80;;;;;;5092317;28;20384;-67
2022/06/19 04:07:43;;;;;;;2.35;1.52;;;21.20;81.10;;;;;;5091170;28;20546;-68
2022/06/19 04:10:09;;;;;;;2.75;1.30;;;21.20;81.20;;;;;;5092289;28;20031;-70
2022/06/19 04:12:35;;;;;;;1.52;1.30;;;21.20;89.10;;;;;;5092029;28;20028;-70
2022/06/19 04:15:00;;;;;;;2.55;1.70;;;21.20;92.70;;;;;;5092640;28;20027;-71
2022/06/19 04:17:27;;;;;;;3.72;1.60;;;21.10;93.50;;;;;;5092223;28;20373;-68
2022/06/19 04:19:53;;;;;;;1.80;1.70;;;21.00;94.40;;;;;;5091923;28;20028;-67
2022/06/19 04:22:19;;;;;;;2.42;1.60;;;21.00;93.70;;;;;;5091896;28;20107;-67
2022/06/19 04:24:44;;;;;;;2.35;1.60;;;21.00;93.90;;;;;;5090869;28;20066;-67
2022/06/19 04:27:10;;;;;;;1.90;1.42;;;21.00;92.50;;;;;;5091805;28;20441;-67
2022/06/19 04:29:36;;;;;;;2.05;1.52;;;21.10;92.00;;;;;;5091230;28;20322;-68
2022/06/19 04:32:01;;;;;;;1.65;1.40;;;21.20;91.30;;;;;;5091705;28;20409;-67
2022/06/19 04:34:27;;;;;;;1.92;1.65;;;21.30;90.60;;;;;;5091738;28;20114;-67
2022/06/19 04:36:53;;;;;;;1.63;1.52;;;21.50;91.50;;;;;;5091150;28;20070;-66
2022/06/19 04:39:18;;;;;;;2.60;1.40;;;21.70;91.30;;;;;;5091668;28;20365;-66
2022/06/19 04:41:44;;;;;;;1.77;1.50;;;21.80;90.50;;;;;;5091063;28;20077;-67
2022/06/19 04:44:14;;;;;;;2.08;1.42;;;21.90;89.50;;;;;;5091563;28;20031;-67
2022/06/19 04:46:40;;;;;;;1.88;1.50;;;22.00;86.10;;;;;;5090639;28;20177;-67
2022/06/19 04:49:06;;;;;;;1.40;1.30;;;22.10;84.40;;;;;;5078910;28;20388;-67
2022/06/19 04:51:32;;;;;;;1.50;1.40;;;22.20;84.20;;;;;;5070773;28;20107;-67
2022/06/19 04:53:57;;;;;;;1.67;1.33;;;22.30;83.70;;;;;;5071383;28;20051;-67
2022/06/19 04:56:23;;;;;;;2.15;1.52;;;22.40;81.90;;;;;;5071329;28;20016;-67
2022/06/19 04:58:50;;;;;;;2.03;1.52;;;22.60;80.50;;;;;;5071083;28;20032;-67
2022/06/19 05:01:35;;;;;;;1.52;1.38;;;22.70;79.30;;;;;;5071301;28;20032;-67
2022/06/19 05:04:04;;;;;;;1.58;1.35;;;22.80;78.20;;;;;;5071848;28;20024;-68
2022/06/19 05:06:30;;;;;;;1.50;1.40;;;23.00;78.20;;;;;;5071215;28;20105;-66
2022/06/19 05:08:57;;;;;;;1.58;1.48;;;23.20;79.10;;;;;;5071424;28;20025;-66
2022/06/19 05:11:25;;;;;;;2.33;1.50;;;23.30;79.20;;;;;;5071306;28;20148;-67
2022/06/19 05:13:50;;;;;;;1.60;1.35;;;23.50;78.80;;;;;;5070855;28;20429;-67
2022/06/19 05:16:20;;;;;;;1.98;1.55;;;23.70;75.30;;;;;;5084927;28;20028;-67
2022/06/19 05:18:46;;;;;;;1.52;1.30;;;23.90;73.50;;;;;;5089319;28;20108;-67
2022/06/19 05:21:13;;;;;;;1.60;1.50;;;24.00;72.10;;;;;;5087400;28;20024;-67
2022/06/19 05:23:41;;;;;;;2.13;1.40;;;24.20;70.40;;;;;;5089181;28;20073;-67
2022/06/19 05:26:16;;;;;;;1.23;1.13;;;24.30;69.80;;;;;;5090191;28;20401;-67
2022/06/19 05:28:43;;;;;;;1.77;1.40;;;24.50;68.70;;;;;;5088315;28;20023;-67
2022/06/19 05:31:08;;;;;;;1.83;1.40;;;24.70;67.60;;;;;;5090260;28;20024;-67
2022/06/19 05:33:34;;;;;;;1.48;1.38;;;24.80;67.20;;;;;;5089595;28;20085;-67
2022/06/19 05:36:01;;;;;;;2.65;1.70;;;25.10;67.00;;;;;;5091688;28;20024;-68
2022/06/19 05:38:27;;;;;;;1.67;1.42;;;25.30;65.90;;;;;;5095348;28;20028;-66
2022/06/19 05:40:54;;;;;;;1.77;1.40;;;25.50;64.40;;;;;;5095119;28;20472;-67
2022/06/19 05:43:21;;;;;;;2.10;1.88;;;25.70;63.60;;;;;;5095586;28;20028;-68
2022/06/19 05:45:52;;;;;;;1.50;1.40;;;26.00;61.70;;;;;;5094692;28;20047;-68
2022/06/19 05:48:18;;;;;;;1.40;1.23;;;26.40;61.30;;;;;;5095201;28;20064;-67
2022/06/19 05:50:44;;;;;;;1.42;1.10;;;27.10;59.60;;;;;;5094937;28;20474;-67
2022/06/19 05:53:10;;;;;;;2.10;1.60;;;28.20;58.60;;;;;;5095310;28;20036;-68
2022/06/19 05:55:35;;;;;;;1.95;1.55;;;30.00;55.10;;;;;;5094829;28;20487;-68
2022/06/19 05:58:01;;;;;;;1.80;1.50;;;31.50;49.80;;;;;;5082506;28;20024;-68
2022/06/19 06:00:27;;;;;;;2.25;1.55;;;32.60;47.30;;;;;;5074936;28;20074;-67
2022/06/19 06:02:52;;;;;;;1.27;1.17;;;33.50;44.50;;;;;;5074418;28;20020;-68
2022/06/19 06:05:18;;;;;;;1.40;1.30;;;34.20;43.50;;;;;;5075006;28;20025;-67
2022/06/19 06:07:44;;;;;;;1.40;1.20;;;34.60;42.80;;;;;;5074482;28;20534;-68
2022/06/19 06:10:10;;;;;;;1.90;1.33;;;34.60;41.50;;;;;;5074761;28;20028;-68
2022/06/19 06:12:36;;;;;;;1.58;1.20;;;34.30;41.30;;;;;;5082748;28;20032;-68
2022/06/19 06:15:02;;;;;;;1.52;1.35;;;33.30;41.50;;;;;;5094598;28;20024;-68
2022/06/19 06:17:27;;;;;;;1.83;1.23;;;32.30;42.90;;;;;;5094279;28;20029;-68
2022/06/19 06:19:53;;;;;;;1.95;1.55;;;31.50;44.20;;;;;;5094346;28;20100;-68
2022/06/19 06:22:19;;;;;;;2.10;1.30;;;31.00;45.10;;;;;;5094951;28;20032;-68
2022/06/19 06:24:44;;;;;;;1.35;1.10;;;30.50;46.60;;;;;;5094285;28;20028;-68
2022/06/19 06:27:10;;;;;;;3.25;1.90;;;30.30;47.80;;;;;;5094575;28;20452;-68
2022/06/19 06:29:36;;;;;;;2.25;1.38;;;30.10;47.70;;;;;;5094356;28;20081;-68
2022/06/19 06:32:02;;;;;;;1.52;1.42;;;30.00;48.60;;;;;;5094358;28;20035;-68
2022/06/19 06:34:27;;;;;;;1.60;1.50;;;30.00;48.30;;;;;;5094508;28;20425;-67
2022/06/19 06:36:53;;;;;;;1.40;1.30;;;30.00;48.40;;;;;;5093450;28;20036;-68
2022/06/19 06:39:20;;;;;;;1.23;1.13;;;30.00;47.90;;;;;;5094022;28;20101;-67
2022/06/19 06:41:45;;;;;;;2.03;1.25;;;30.30;48.40;;;;;;5093797;28;20055;-68
2022/06/19 06:44:15;;;;;;;2.75;1.20;;;30.70;48.40;;;;;;5094241;28;20374;-67
2022/06/19 06:46:40;;;;;;;1.27;1.10;;;31.40;47.40;;;;;;5093407;28;20044;-67
2022/06/19 06:49:07;;;;;;;1.20;1.10;;;32.00;46.00;;;;;;5094265;28;20028;-67
2022/06/19 06:51:33;;;;;;;1.63;1.50;;;32.60;44.90;;;;;;5094174;28;20035;-67
2022/06/19 06:54:00;;;;;;;1.35;1.00;;;32.80;42.90;;;;;;5093838;28;20064;-66
2022/06/19 06:56:31;;;;;;;1.13;0.95;;;33.00;41.70;;;;;;5094156;28;20036;-67
2022/06/19 06:58:56;;;;;;;1.13;1.02;;;32.80;41.10;;;;;;5093797;28;20453;-67
2022/06/19 07:01:22;;;;;;;1.35;1.10;;;32.80;40.70;;;;;;5094061;28;20032;-68
2022/06/19 07:03:54;;;;;;;1.33;1.00;;;32.60;41.00;;;;;;5093491;28;20398;-68
2022/06/19 07:06:20;;;;;;;1.58;1.20;;;32.50;41.20;;;;;;5093961;28;20020;-68
2022/06/19 07:08:46;;;;;;;2.33;1.25;;;32.40;41.30;;;;;;5093458;28;20020;-68
2022/06/19 07:11:20;;;;;;;1.10;1.00;;;32.30;41.20;;;;;;5093789;28;20354;-68
2022/06/19 07:13:45;;;;;;;1.88;1.13;;;32.20;40.90;;;;;;5093720;28;20040;-67
2022/06/19 07:16:11;;;;;;;1.13;1.00;;;32.20;41.10;;;;;;5094015;28;20452;-67
2022/06/19 07:18:37;;;;;;;1.20;1.10;;;32.20;41.80;;;;;;5093368;28;20020;-67
2022/06/19 07:21:03;;;;;;;1.20;1.00;;;32.30;41.50;;;;;;5093040;28;20042;-67
2022/06/19 07:23:28;;;;;;;0.80;0.80;;;32.50;41.50;;;;;;5093799;28;20100;-67
2022/06/19 07:25:54;;;;;;;1.33;1.23;;;32.80;41.90;;;;;;5093298;28;20116;-67
2022/06/19 07:28:20;;;;;;;1.70;1.20;;;33.00;41.70;;;;;;5093438;28;20020;-68
2022/06/19 07:30:46;;;;;;;1.10;0.90;;;33.10;41.00;;;;;;5092732;28;20035;-68
2022/06/19 07:33:12;;;;;;;0.77;0.77;;;33.20;41.30;;;;;;5091575;28;20028;-67
2022/06/19 07:35:38;;;;;;;1.30;1.20;;;33.40;40.50;;;;;;5091680;28;20217;-67
2022/06/19 07:38:04;;;;;;;3.22;1.75;;;33.70;40.60;;;;;;5091457;28;20020;-66
2022/06/19 07:40:30;;;;;;;1.27;1.02;;;33.90;40.50;;;;;;5092093;28;20448;-69
2022/06/19 07:42:56;;;;;;;1.20;1.10;;;33.50;40.10;;;;;;5091286;28;20035;-68
2022/06/19 07:45:21;;;;;;;1.10;1.00;;;33.50;40.30;;;;;;5091276;28;20051;-67
2022/06/19 07:50:31;;;;;;;1.60;1.20;;;33.50;40.00;;;;;;5089034;28;20059;-67
2022/06/19 07:52:57;;;;;;;1.20;0.90;;;33.50;40.50;;;;;;5090769;28;20456;-67
2022/06/19 07:55:27;;;;;;;1.05;1.02;;;33.30;39.20;;;;;;5091289;28;20097;-67
2022/06/19 07:57:53;;;;;;;4.50;1.48;;;33.20;39.30;;;;;;5088403;28;20349;-67
2022/06/19 08:00:23;;;;;;;0.77;0.77;;;32.90;39.60;;;;;;5091086;28;20032;-68
2022/06/19 08:02:51;;;;;;;2.53;1.20;;;32.60;39.00;;;;;;5072000;28;20090;-67
2022/06/19 08:05:19;;;;;;;1.10;1.00;;;32.40;39.40;;;;;;5078974;28;20485;-69
2022/06/19 08:07:45;;;;;;;5.10;1.33;;;32.30;39.30;;;;;;5080222;28;20024;-69
2022/06/19 08:10:25;;;;;;;1.90;0.80;;;32.20;39.80;;;;;;5079958;28;20106;-69
2022/06/19 08:12:52;;;;;;;1.60;1.40;;;32.10;39.90;;;;;;5091998;28;20067;-69
2022/06/19 08:15:18;;;;;;;0.90;0.90;;;32.00;39.50;;;;;;5076843;28;20028;-69
2022/06/19 08:17:45;;;;;;;1.45;0.80;;;31.80;39.50;;;;;;5071679;28;20035;-69
2022/06/19 08:20:12;;;;;;;1.67;0.93;;;31.80;39.80;;;;;;5073606;28;20027;-70
2022/06/19 08:22:38;;;;;;;1.13;0.80;;;31.70;40.60;;;;;;5087152;28;20077;-69
2022/06/19 08:25:05;;;;;;;0.88;0.88;;;31.60;40.00;;;;;;5071969;28;20024;-69
2022/06/19 08:27:31;;;;;;;0.98;0.88;;;31.50;39.80;;;;;;5071729;28;20028;-69
2022/06/19 08:29:56;;;;;;;1.50;1.23;;;31.30;40.10;;;;;;5071533;28;20021;-69
2022/06/19 08:32:22;;;;;;;3.45;1.02;;;31.20;39.80;;;;;;5071715;28;20503;-69
2022/06/19 08:34:48;;;;;;;0.90;0.90;;;31.10;40.50;;;;;;5071464;28;20036;-69
2022/06/19 08:37:14;;;;;;;0.95;0.77;;;31.00;40.70;;;;;;5071353;28;20552;-69
2022/06/19 08:39:40;;;;;;;1.75;1.10;;;30.90;40.30;;;;;;5071708;28;20415;-70
2022/06/19 08:42:18;;;;;;;1.23;0.80;;;30.70;39.90;;;;;;5071524;28;20112;-69
2022/06/19 08:45:05;;;;;;;1.17;1.05;;;30.60;40.80;;;;;;5071620;28;20353;-69
2022/06/19 08:47:54;;;;;;;1.98;1.33;;;30.50;41.20;;;;;;5071767;28;20052;-68
2022/06/19 08:50:53;;;;;;;1.58;0.90;;;30.50;41.90;;;;;;5072258;28;20032;-69
2022/06/19 08:53:33;;;;;;;1.40;1.00;;;30.30;41.70;;;;;;5071637;28;20033;-69
2022/06/19 08:56:22;;;;;;;0.90;0.90;;;30.20;41.80;;;;;;5071558;28;20029;-69
2022/06/19 08:59:13;;;;;;;1.35;1.23;;;30.20;42.00;;;;;;5053648;28;20033;-69
2022/06/19 09:02:04;;;;;;;4.43;1.10;;;30.10;42.60;;;;;;5071800;28;20226;-69
2022/06/19 09:07:35;;;;;;;1.45;1.10;;;29.90;42.90;;;;;;5071513;28;20054;-70
2022/06/19 09:10:16;;;;;;;2.22;1.45;;;29.80;42.80;;;;;;5072398;28;20086;-68
2022/06/19 09:12:54;;;;;;;4.78;1.08;;;29.70;42.70;;;;;;5075765;28;20078;-70
2022/06/19 09:15:35;;;;;;;1.27;1.10;;;29.60;43.10;;;;;;5093279;28;20043;-70
2022/06/19 09:18:04;;;;;;;1.17;0.93;;;29.60;43.30;;;;;;5095632;28;20031;-71
2022/06/19 09:21:07;;;;;;;1.20;1.10;;;29.50;43.80;;;;;;5095756;28;20353;-72
2022/06/19 09:23:47;;;;;;;2.38;1.50;;;29.40;43.40;;;;;;5095913;28;20099;-72
2022/06/19 09:26:29;;;;;;;1.55;0.88;;;29.30;43.80;;;;;;5095595;28;20544;-72
2022/06/19 09:29:09;;;;;;;1.50;1.00;;;29.30;44.00;;;;;;5095072;28;20472;-72
2022/06/19 09:31:55;;;;;;;4.03;0.95;;;29.30;44.20;;;;;;5094714;28;20036;-72
2022/06/19 09:34:38;;;;;;;2.17;1.38;;;29.30;44.30;;;;;;5093820;28;20036;-73
2022/06/19 09:37:21;;;;;;;1.20;1.00;;;29.30;44.00;;;;;;5093529;28;20024;-72
2022/06/19 09:40:02;;;;;;;1.30;1.05;;;29.30;44.00;;;;;;5091325;28;20031;-70
2022/06/19 09:42:34;;;;;;;1.55;1.08;;;29.20;44.70;;;;;;5092080;28;20027;-73
2022/06/19 09:45:15;;;;;;;1.10;1.00;;;29.20;45.30;;;;;;5093724;28;20038;-72
2022/06/19 09:47:56;;;;;;;4.13;1.67;;;29.20;45.00;;;;;;5093708;28;20472;-73
2022/06/19 09:50:30;;;;;;;1.30;1.20;;;29.20;44.20;;;;;;5093926;28;20055;-72
2022/06/19 09:53:01;;;;;;;1.75;1.20;;;29.20;44.30;;;;;;5093130;28;20465;-72
2022/06/19 09:55:48;;;;;;;1.10;1.00;;;29.20;45.30;;;;;;5089438;28;20111;-72
2022/06/19 09:58:20;;;;;;;1.20;1.10;;;29.20;44.30;;;;;;5092639;28;20030;-73
2022/06/19 10:00:49;;;;;;;1.20;1.10;;;29.20;44.50;;;;;;5093794;28;20024;-72
2022/06/19 10:03:26;;;;;;;2.70;1.80;;;29.20;44.90;;;;;;5093496;28;20106;-72
2022/06/19 10:06:01;;;;;;;1.45;1.10;;;29.20;45.30;;;;;;5091178;28;20136;-72
2022/06/19 10:08:38;;;;;;;1.40;1.30;;;29.20;45.60;;;;;;5093897;28;20480;-73
2022/06/19 10:11:12;;;;;;;4.07;1.20;;;29.20;46.10;;;;;;5093957;28;20027;-73
2022/06/19 10:13:46;;;;;;;1.55;1.30;;;29.20;45.30;;;;;;5091664;28;20116;-74
2022/06/19 10:16:35;;;;;;;2.47;1.27;;;29.20;45.30;;;;;;5074453;28;20050;-73
2022/06/19 10:19:10;;;;;;;1.38;1.13;;;29.20;45.30;;;;;;5073920;28;20384;-72
2022/06/19 10:24:58;;;;;;;1.65;1.52;;;29.20;46.00;;;;;;5095008;28;20129;-73
2022/06/19 10:27:52;;;;;;;1.98;1.50;;;29.20;46.20;;;;;;5095268;28;20064;-74
2022/06/19 10:30:27;;;;;;;1.70;1.35;;;29.20;46.70;;;;;;5094002;28;20464;-72
2022/06/19 10:33:19;;;;;;;1.75;1.00;;;29.20;45.60;;;;;;5092684;28;20028;-72
2022/06/19 10:35:58;;;;;;;1.58;1.35;;;29.20;46.30;;;;;;5091437;28;20383;-73
2022/06/19 10:38:45;;;;;;;1.60;1.30;;;29.30;46.60;;;;;;5094317;28;20039;-73
2022/06/19 10:44:37;;;;;;;1.77;1.50;;;29.30;46.90;;;;;;5093680;28;20032;-74
2022/06/19 10:47:14;;;;;;;5.63;1.55;;;29.40;46.90;;;;;;5094143;28;20040;-73
2022/06/19 10:49:58;;;;;;;1.40;1.20;;;29.40;46.30;;;;;;5094298;28;20024;-74
2022/06/19 10:52:45;;;;;;;1.45;1.35;;;29.40;46.20;;;;;;5094278;28;20036;-73
2022/06/19 10:55:37;;;;;;;1.13;1.02;;;29.40;45.90;;;;;;5093506;28;20804;-73
2022/06/19 10:58:19;;;;;;;1.05;1.00;;;29.30;46.10;;;;;;5047140;28;20036;-73
2022/06/19 11:00:49;;;;;;;1.80;1.30;;;29.30;46.20;;;;;;5094312;28;20024;-73
2022/06/19 11:06:52;;;;;;;1.35;1.25;;;29.30;46.40;;;;;;5094023;28;20119;-73
2022/06/19 11:09:30;;;;;;;1.23;1.13;;;29.40;46.70;;;;;;5094020;28;20032;-74
2022/06/19 11:12:03;;;;;;;1.55;1.30;;;29.30;45.80;;;;;;5093551;28;20024;-73
2022/06/19 11:14:34;;;;;;;1.95;1.10;;;29.30;46.30;;;;;;5093542;28;20044;-74
2022/06/19 11:17:06;;;;;;;1.75;1.30;;;29.30;46.20;;;;;;5093371;28;20028;-73
2022/06/19 11:19:50;;;;;;;1.25;1.15;;;29.30;46.30;;;;;;5092470;28;20024;-73
2022/06/19 11:22:27;;;;;;;1.33;1.23;;;29.30;46.60;;;;;;5092297;28;20441;-73
2022/06/19 11:24:55;;;;;;;2.22;1.48;;;29.30;46.90;;;;;;5093312;28;20082;-72
2022/06/19 11:27:24;;;;;;;1.77;1.38;;;29.40;47.10;;;;;;5093552;28;20020;-73
2022/06/19 11:29:53;;;;;;;2.53;0.98;;;29.40;46.60;;;;;;5093112;28;20051;-74
2022/06/19 11:32:22;;;;;;;1.27;1.17;;;29.40;46.20;;;;;;5085140;28;20119;-72
2022/06/19 11:34:58;;;;;;;2.03;1.58;;;29.40;45.90;;;;;;5082612;28;20028;-73
2022/06/19 11:37:27;;;;;;;1.50;1.40;;;29.50;45.70;;;;;;5084618;28;20103;-73
2022/06/19 11:40:15;;;;;;;1.42;1.10;;;29.50;45.90;;;;;;5092718;28;20115;-72
2022/06/19 11:42:51;;;;;;;1.23;1.10;;;29.50;46.40;;;;;;5074805;28;20423;-73
2022/06/19 11:45:17;;;;;;;1.52;1.38;;;29.50;46.00;;;;;;5092129;28;20404;-73
2022/06/19 11:48:10;;;;;;;1.67;1.30;;;29.50;45.90;;;;;;5093016;28;20035;-73
2022/06/19 11:50:40;;;;;;;1.50;1.23;;;29.60;45.90;;;;;;5076979;28;20086;-74
2022/06/19 11:53:06;;;;;;;1.63;1.40;;;29.50;45.50;;;;;;5092443;28;20032;-73
2022/06/19 11:55:46;;;;;;;2.92;1.00;;;29.50;46.30;;;;;;5084109;28;20103;-74
2022/06/19 11:58:41;;;;;;;2.25;1.30;;;29.50;46.50;;;;;;5072234;28;20533;-74
2022/06/19 12:01:13;;;;;;;1.60;1.30;;;29.40;46.00;;;;;;5072121;28;20054;-73
2022/06/19 12:03:58;;;;;;;0.98;0.98;;;29.40;46.30;;;;;;5072424;28;20032;-73
2022/06/19 12:06:45;;;;;;;1.25;1.00;;;29.40;46.30;;;;;;5072878;28;20028;-71
2022/06/19 12:09:23;;;;;;;2.20;1.30;;;29.30;45.40;;;;;;5072256;28;20083;-75
2022/06/19 12:12:11;;;;;;;2.15;1.10;;;29.30;45.70;;;;;;5072603;28;20465;-76
2022/06/19 12:14:46;;;;;;;3.25;1.52;;;29.30;45.80;;;;;;5056689;28;20346;-77
2022/06/19 12:17:37;;;;;;;4.53;1.05;;;29.20;46.00;;;;;;5071728;28;20032;-72
2022/06/19 12:20:05;;;;;;;1.90;1.20;;;29.20;46.90;;;;;;5060108;28;20037;-69
2022/06/19 12:22:50;;;;;;;0.82;0.82;;;29.20;46.20;;;;;;5072221;28;20554;-67
2022/06/19 12:25:24;;;;;;;2.13;1.20;;;29.20;46.20;;;;;;5075251;28;20032;-68
2022/06/19 12:28:14;;;;;;;1.20;1.10;;;29.20;46.50;;;;;;5090919;28;20020;-69
2022/06/19 12:31:08;;;;;;;1.38;1.25;;;29.10;46.70;;;;;;5074747;28;20103;-69
2022/06/19 12:33:56;;;;;;;2.00;1.23;;;29.20;46.10;;;;;;5089495;28;20039;-68
2022/06/19 12:36:28;;;;;;;3.63;1.35;;;29.10;45.80;;;;;;5087712;28;20020;-68
2022/06/19 12:38:53;;;;;;;1.33;1.13;;;29.10;45.80;;;;;;5089494;28;20024;-68
2022/06/19 12:41:53;;;;;;;3.60;1.27;;;29.10;46.00;;;;;;5091056;28;20043;-68
2022/06/19 12:44:31;;;;;;;2.70;1.52;;;29.10;46.50;;;;;;5089228;28;20032;-68
2022/06/19 12:47:06;;;;;;;2.30;1.10;;;29.10;46.20;;;;;;5089517;28;20135;-68
2022/06/19 12:49:43;;;;;;;1.52;1.10;;;29.10;46.20;;;;;;5088916;28;20031;-70
2022/06/19 12:52:15;;;;;;;1.60;1.30;;;29.10;46.30;;;;;;5091119;28;20115;-70
2022/06/19 12:55:06;;;;;;;1.85;1.38;;;29.10;47.70;;;;;;5091637;28;20035;-69
2022/06/19 12:57:53;;;;;;;2.05;1.40;;;29.10;48.00;;;;;;5089069;28;20372;-69
2022/06/19 13:00:56;;;;;;;3.50;1.48;;;29.10;48.10;;;;;;5088137;28;20102;-68
2022/06/19 13:04:15;;;;;;;2.50;1.40;;;29.20;47.10;;;;;;5087616;28;20035;-69
2022/06/19 13:07:12;;;;;;;5.95;1.40;;;29.20;46.10;;;;;;5026350;28;20044;-68
2022/06/19 13:09:46;;;;;;;1.38;1.27;;;29.20;46.70;;;;;;5086430;28;20039;-68
2022/06/19 13:12:12;;;;;;;2.15;1.38;;;29.20;47.70;;;;;;5091319;28;20065;-68
2022/06/19 13:14:53;;;;;;;3.55;1.25;;;29.20;47.80;;;;;;5091250;28;20050;-69
2022/06/19 13:17:32;;;;;;;7.15;1.30;;;29.20;47.00;;;;;;5091164;28;20020;-69
2022/06/19 13:20:19;;;;;;;1.88;1.20;;;29.20;46.50;;;;;;5075791;28;20479;-68
2022/06/19 13:23:26;;;;;;;1.58;1.33;;;29.20;46.90;;;;;;5091334;28;20086;-68
2022/06/19 13:25:59;;;;;;;2.47;1.42;;;29.20;47.10;;;;;;5043563;28;20032;-68
2022/06/19 13:28:33;;;;;;;5.22;1.17;;;29.20;47.10;;;;;;5091220;28;20047;-67
2022/06/19 13:31:33;;;;;;;1.45;1.10;;;29.20;47.10;;;;;;5091641;28;20035;-67